Tatiana 1 — 9HA2824 — position and weather

sailwx.info

Track history (hours):
 
Tides and Currents Weather Stations Pressure Air Temp Water Temp Dewpoint Dewpoint Depression Visibility Wind Speed Wind Dir Waves Ship Positions

Tatiana 1

Last reported at 2017-Sep-11 04:01 UTC. Time now 2017-Sep-22 02:59 UTC.
Position N 37°16' E 025°53'.
Warning: this ship's position is 10 days out of date.

Length 47 m; draft 2.5 m.

Type: Ship. MMSI: 256188000.

Date/timePositionNaut miles runAvg speedWind from/ knotsBaromVisibWave heightAir tempDewpointWater temp
2017-Sep-11 04:01N 37°16' E 025°53'0 9.5
2017-Sep-11 04:01N 37°16' E 025°52'5 9.4
2017-Sep-11 03:31N 37°18' E 025°47'5 9.7
2017-Sep-11 03:00N 37°19' E 025°41'510.2
2017-Sep-11 02:31N 37°20' E 025°35'510.3
2017-Sep-11 02:00N 37°21' E 025°28'510.1
2017-Sep-11 01:30N 37°23' E 025°22'4 9.0
2017-Sep-11 01:01N 37°25' E 025°18'2 4.8
2017-Sep-11 00:30N 37°27' E 025°20'0 0.0
2017-Sep-11 00:00N 37°27' E 025°20'0 0.1
2017-Sep-10 23:30N 37°27' E 025°20'0 0.0
2017-Sep-10 22:54N 37°27' E 025°20'0 0.0
2017-Sep-10 22:30N 37°27' E 025°20'0 0.0
2017-Sep-10 21:54N 37°27' E 025°20'0 0.0
2017-Sep-10 21:30N 37°27' E 025°20'0 0.0
2017-Sep-10 21:00N 37°27' E 025°20'0 0.0
2017-Sep-10 20:30N 37°27' E 025°20'0 0.0
2017-Sep-10 20:00N 37°27' E 025°20'0 0.0
2017-Sep-10 18:30N 37°27' E 025°20'0 0.0
2017-Sep-10 17:54N 37°27' E 025°20'0 0.0
2017-Sep-10 17:30N 37°27' E 025°20'0 0.0
2017-Sep-10 16:54N 37°27' E 025°20'0 0.0
2017-Sep-10 16:12N 37°27' E 025°20'0 0.0
2017-Sep-10 15:58N 37°27' E 025°20'0 0.7
2017-Sep-10 15:30N 37°27' E 025°19'3 5.8
2017-Sep-10 15:01N 37°24' E 025°19'1 1.2
2017-Sep-10 14:00N 37°25' E 025°20'0 0.0
2017-Sep-10 13:27N 37°25' E 025°20'0 0.0
2017-Sep-10 13:00N 37°25' E 025°20'0 0.0
2017-Sep-10 12:24N 37°25' E 025°20'0 0.0
2017-Sep-10 12:00N 37°25' E 025°20'0 0.0
2017-Sep-10 11:30N 37°25' E 025°20'0 0.0
2017-Sep-10 10:51N 37°25' E 025°20'0 0.0
2017-Sep-10 10:27N 37°25' E 025°20'0 0.0
2017-Sep-10 10:00N 37°25' E 025°20'0 0.0
2017-Sep-10 09:27N 37°25' E 025°20'0 0.0
2017-Sep-10 09:00N 37°25' E 025°20'0 0.0
2017-Sep-10 08:30N 37°25' E 025°20'2 4.8
2017-Sep-10 08:00N 37°26' E 025°18'2 3.9
2017-Sep-10 07:30N 37°27' E 025°20'0 0.0
2017-Sep-10 07:00N 37°27' E 025°20'0 0.0
2017-Sep-10 06:30N 37°27' E 025°20'0 0.0
2017-Sep-10 06:00N 37°27' E 025°20'0 0.0
2017-Sep-10 05:30N 37°27' E 025°20'0 0.0
2017-Sep-10 05:00N 37°27' E 025°20'0 0.0
2017-Sep-10 04:30N 37°27' E 025°20'0 0.0
2017-Sep-10 04:00N 37°27' E 025°20'0 0.0
2017-Sep-10 03:30N 37°27' E 025°20'0 0.0
2017-Sep-10 03:00N 37°27' E 025°20'0 0.0
2017-Sep-10 02:30N 37°27' E 025°20'0 0.0
2017-Sep-10 02:00N 37°27' E 025°20'0 0.0
2017-Sep-10 01:30N 37°27' E 025°20'0 0.0
2017-Sep-10 01:00N 37°27' E 025°20'0 0.0
2017-Sep-10 00:30N 37°27' E 025°20'0 0.0
2017-Sep-10 00:00N 37°27' E 025°20'0 0.0
2017-Sep-09 23:30N 37°27' E 025°20'0 0.0
2017-Sep-09 23:00N 37°27' E 025°20'0 0.0
2017-Sep-09 22:30N 37°27' E 025°20'0 0.0
2017-Sep-09 22:00N 37°27' E 025°20'0 0.0
2017-Sep-09 21:30N 37°27' E 025°20'0 0.0
2017-Sep-09 21:00N 37°27' E 025°20'0 0.0
2017-Sep-09 20:29N 37°27' E 025°20'0 0.0
2017-Sep-09 20:00N 37°27' E 025°20'0 0.0
2017-Sep-09 19:28N 37°27' E 025°20'0 0.0
2017-Sep-09 19:00N 37°27' E 025°20'0 0.0
2017-Sep-09 18:29N 37°27' E 025°20'0 0.0
2017-Sep-09 17:59N 37°27' E 025°20'0 0.0
2017-Sep-09 17:30N 37°27' E 025°20'0 0.0
2017-Sep-09 17:00N 37°27' E 025°20'0 0.0
2017-Sep-09 16:30N 37°27' E 025°20'0 0.0
2017-Sep-09 16:00N 37°27' E 025°20'0 0.0
2017-Sep-09 15:30N 37°27' E 025°20'0 0.0
2017-Sep-09 15:00N 37°27' E 025°20'0 0.1
2017-Sep-09 14:30N 37°27' E 025°20'3 5.6
2017-Sep-09 14:00N 37°24' E 025°20'1 1.3
2017-Sep-09 13:29N 37°25' E 025°20'0 0.0
2017-Sep-09 12:59N 37°25' E 025°20'0 0.0
2017-Sep-09 12:23N 37°25' E 025°20'0 0.0
2017-Sep-09 11:59N 37°25' E 025°20'0 0.0
2017-Sep-09 11:26N 37°25' E 025°20'0 0.0
2017-Sep-09 10:59N 37°25' E 025°20'0 0.0
2017-Sep-09 10:29N 37°25' E 025°20'0 0.0
2017-Sep-09 09:59N 37°25' E 025°20'0 0.0
2017-Sep-09 09:29N 37°25' E 025°20'0 0.0
2017-Sep-09 08:56N 37°25' E 025°20'0 0.0
2017-Sep-09 08:23N 37°25' E 025°20'0 0.1
2017-Sep-09 08:01N 37°25' E 025°20'3 5.8
2017-Sep-09 07:30N 37°26' E 025°18'2 2.9
2017-Sep-09 06:56N 37°27' E 025°20'0 0.0
2017-Sep-09 06:29N 37°27' E 025°20'0 0.0
2017-Sep-09 05:59N 37°27' E 025°20'0 0.0
2017-Sep-09 05:29N 37°27' E 025°20'0 0.0
2017-Sep-09 04:59N 37°27' E 025°20'0 0.0
2017-Sep-09 04:29N 37°27' E 025°20'0 0.0
2017-Sep-09 03:59N 37°27' E 025°20'0 0.0
2017-Sep-09 03:29N 37°27' E 025°20'0 0.0
2017-Sep-09 02:59N 37°27' E 025°20'0 0.0
2017-Sep-09 02:17N 37°27' E 025°20'0 0.0
2017-Sep-09 01:53N 37°27' E 025°20'0 0.0
2017-Sep-09 01:29N 37°27' E 025°20'0 0.0
2017-Sep-09 00:47N 37°27' E 025°20'0 0.0
2017-Sep-09 00:23N 37°27' E 025°20'0 0.0
2017-Sep-08 23:50N 37°27' E 025°20'0 0.0
2017-Sep-08 23:29N 37°27' E 025°20'0 0.0
2017-Sep-08 22:59N 37°27' E 025°20'0 0.0
2017-Sep-08 22:29N 37°27' E 025°20'0 0.0
2017-Sep-08 21:59N 37°27' E 025°20'0 0.0
2017-Sep-08 21:26N 37°27' E 025°20'0 0.0
2017-Sep-08 20:59N 37°27' E 025°20'0 0.0
2017-Sep-08 20:29N 37°27' E 025°20'0 0.0
2017-Sep-08 19:44N 37°27' E 025°20'0 0.0
2017-Sep-08 19:29N 37°27' E 025°20'0 0.0
2017-Sep-08 18:59N 37°27' E 025°20'0 0.0
2017-Sep-08 18:29N 37°27' E 025°20'0 0.0
2017-Sep-08 17:59N 37°27' E 025°20'0 0.0
2017-Sep-08 17:29N 37°27' E 025°20'0 0.0
2017-Sep-08 16:56N 37°27' E 025°20'0 0.0
2017-Sep-08 16:23N 37°27' E 025°20'0 0.0
2017-Sep-08 16:00N 37°27' E 025°20'0 0.0
2017-Sep-08 15:30N 37°27' E 025°20'0 0.0
2017-Sep-08 15:00N 37°27' E 025°20'0 0.0
2017-Sep-08 14:30N 37°27' E 025°20'2 4.8
2017-Sep-08 14:00N 37°25' E 025°18'1 2.3
2017-Sep-08 13:30N 37°25' E 025°19'0 0.0
2017-Sep-08 13:00N 37°25' E 025°19'0 0.0
2017-Sep-08 12:30N 37°25' E 025°19'0 0.0
2017-Sep-08 12:00N 37°25' E 025°19'0 0.0
2017-Sep-08 11:27N 37°25' E 025°19'0 0.0
2017-Sep-08 11:00N 37°25' E 025°19'0 0.0
2017-Sep-08 10:31N 37°25' E 025°19'0 0.0
2017-Sep-08 10:00N 37°25' E 025°19'3 5.4
2017-Sep-08 09:31N 37°23' E 025°18'5 9.2
2017-Sep-08 09:00N 37°22' E 025°12'5 9.8
2017-Sep-08 08:30N 37°26' E 025°08'610.1
2017-Sep-08 07:55N 37°29' E 025°01'410.4
2017-Sep-08 07:30N 37°31' E 024°56'5 9.7
2017-Sep-08 07:01N 37°31' E 024°50'510.0
2017-Sep-08 06:30N 37°31' E 024°44'36 9.9
2017-Sep-08 02:52N 37°37' E 023°59'410.0
2017-Sep-08 02:31N 37°39' E 023°55'510.0
2017-Sep-08 02:01N 37°42' E 023°50'510.2
2017-Sep-08 01:30N 37°45' E 023°45'5 9.9
2017-Sep-08 01:01N 37°50' E 023°42'5 9.9
2017-Sep-08 00:31N 37°54' E 023°40'2 4.1
2017-Sep-08 00:01N 37°56' E 023°39'0 0.0
2017-Sep-07 23:26N 37°56' E 023°39'0 0.0
2017-Sep-07 22:59N 37°56' E 023°39'0 0.0
2017-Sep-07 22:29N 37°56' E 023°39'0 0.0
2017-Sep-07 21:59N 37°56' E 023°39'0 0.0
2017-Sep-07 21:29N 37°56' E 023°39'0 0.0
2017-Sep-07 20:59N 37°56' E 023°39'0 0.0
2017-Sep-07 20:29N 37°56' E 023°39'0 0.0
2017-Sep-07 19:59N 37°56' E 023°39'0 0.0
2017-Sep-07 19:29N 37°56' E 023°39'0 0.0
2017-Sep-07 18:59N 37°56' E 023°39'0 0.0
2017-Sep-07 18:29N 37°56' E 023°39'0 0.0
2017-Sep-07 17:59N 37°56' E 023°39'0 0.0
2017-Sep-07 17:29N 37°56' E 023°39'0 0.0
2017-Sep-07 16:59N 37°56' E 023°39'0 0.0
2017-Sep-07 16:29N 37°56' E 023°39'0 0.0
2017-Sep-07 15:59N 37°56' E 023°39'0 0.0
2017-Sep-07 15:29N 37°56' E 023°39'0 0.0
2017-Sep-07 14:59N 37°56' E 023°39'0 0.0
2017-Sep-07 14:29N 37°56' E 023°39'0 0.0
2017-Sep-07 13:59N 37°56' E 023°39'0 0.0
2017-Sep-07 13:29N 37°56' E 023°39'0 0.0
2017-Sep-07 12:59N 37°56' E 023°39'0 0.0
2017-Sep-07 12:29N 37°56' E 023°39'0 0.0
2017-Sep-07 11:59N 37°56' E 023°39'0 0.0
2017-Sep-07 11:29N 37°56' E 023°39'0 0.0
2017-Sep-07 10:59N 37°56' E 023°39'0 0.0
2017-Sep-07 10:29N 37°56' E 023°39'0 0.0
2017-Sep-07 09:59N 37°56' E 023°39'0 0.0
2017-Sep-07 09:29N 37°56' E 023°39'0 0.0
2017-Sep-07 08:59N 37°56' E 023°39'0 0.0
2017-Sep-07 08:29N 37°56' E 023°39'0 0.0
2017-Sep-07 07:53N 37°56' E 023°39'0 0.0
2017-Sep-07 07:26N 37°56' E 023°39'0 0.0
2017-Sep-07 06:59N 37°56' E 023°39'0 0.0
2017-Sep-07 06:29N 37°56' E 023°39'0 0.0
2017-Sep-07 05:59N 37°56' E 023°39'0 0.0
2017-Sep-07 05:29N 37°56' E 023°39'0 0.0
2017-Sep-07 04:59N 37°56' E 023°39'0 0.0
2017-Sep-07 04:29N 37°56' E 023°39'0 0.0
2017-Sep-07 03:59N 37°56' E 023°39'0 0.0
2017-Sep-07 03:29N 37°56' E 023°39'0 0.0
2017-Sep-07 02:56N 37°56' E 023°39'0 0.0
2017-Sep-07 02:29N 37°56' E 023°39'0 0.0
2017-Sep-07 01:59N 37°56' E 023°39'0 0.0
2017-Sep-07 01:29N 37°56' E 023°39'0 0.0
2017-Sep-07 00:59N 37°56' E 023°39'0 0.0
2017-Sep-07 00:29N 37°56' E 023°39'0 0.0
2017-Sep-06 23:59N 37°56' E 023°39'0 0.0
2017-Sep-06 23:29N 37°56' E 023°39'0 0.0
2017-Sep-06 22:59N 37°56' E 023°39'0 0.1
2017-Sep-06 22:29N 37°56' E 023°39'0 0.0
2017-Sep-06 21:59N 37°56' E 023°39'0 0.0
2017-Sep-06 21:29N 37°56' E 023°39'0 0.0
2017-Sep-06 20:59N 37°56' E 023°39'0 0.0
2017-Sep-06 20:29N 37°56' E 023°39'0 0.0
2017-Sep-06 19:59N 37°56' E 023°39'0 0.0
2017-Sep-06 19:29N 37°56' E 023°39'0 0.0
2017-Sep-06 18:56N 37°56' E 023°39'0 0.0
2017-Sep-06 18:29N 37°56' E 023°39'0 0.0
2017-Sep-06 17:59N 37°56' E 023°39'0 0.0
2017-Sep-06 17:29N 37°56' E 023°39'0 0.0
2017-Sep-06 16:59N 37°56' E 023°39'0 0.0
2017-Sep-06 16:29N 37°56' E 023°39'0 0.0
2017-Sep-06 15:59N 37°56' E 023°39'0 0.0
2017-Sep-06 15:29N 37°56' E 023°39'0 0.0
2017-Sep-06 14:56N 37°56' E 023°39'0 0.0
2017-Sep-06 14:29N 37°56' E 023°39'0 0.0
2017-Sep-06 13:59N 37°56' E 023°39'0 0.0
2017-Sep-06 13:29N 37°56' E 023°39'0 0.0
2017-Sep-06 12:59N 37°56' E 023°39'0 0.3
2017-Sep-06 12:26N 37°56' E 023°39'0 0.0
2017-Sep-06 11:59N 37°56' E 023°39'0 0.0
2017-Sep-06 11:29N 37°56' E 023°39'0 0.0
2017-Sep-06 10:59N 37°56' E 023°39'0 0.0
2017-Sep-06 10:29N 37°56' E 023°39'0 0.0
2017-Sep-06 09:59N 37°56' E 023°39'0 0.0
2017-Sep-06 09:29N 37°56' E 023°39'0 0.0
2017-Sep-06 09:00N 37°56' E 023°39'1 2.5
2017-Sep-06 08:30N 37°55' E 023°38'5 9.2
2017-Sep-06 08:00N 37°52' E 023°34'4 7.3
2017-Sep-06 07:30N 37°51' E 023°29'5 9.1
2017-Sep-06 07:00N 37°52' E 023°24'5 9.4
2017-Sep-06 06:30N 37°52' E 023°18'  
2017-Sep-02 13:25N 37°52' E 020°46'2 0.8
2017-Sep-02 10:55N 37°53' E 020°44'611.4
2017-Sep-02 10:26N 37°58' E 020°41'511.5
2017-Sep-02 10:00N 38°01' E 020°36'611.7
2017-Sep-02 09:30N 38°05' E 020°30'6 4.4
2017-Sep-02 08:09N 38°11' E 020°29'0 0.0
2017-Sep-02 07:57N 38°11' E 020°29'0 0.0
2017-Sep-02 07:27N 38°11' E 020°29'0 0.0
2017-Sep-02 06:57N 38°11' E 020°29'  
Track history (hours):
 
Tides and Currents Weather Stations Pressure Air Temp Water Temp Dewpoint Dewpoint Depression Visibility Wind Speed Wind Dir Waves Ship Positions

Tatiana 1

Last reported at 2017-Sep-11 04:01 UTC. Time now 2017-Sep-22 02:59 UTC.
Position N 37°16' E 025°53'.
Warning: this ship's position is 10 days out of date.

Length 47 m; draft 2.5 m.

Type: Ship. MMSI: 256188000.

Date/timePositionNaut miles runAvg speedWind from/ knotsBaromVisibWave heightAir tempDewpointWater temp
2017-Sep-11 04:01N 37°16' E 025°53'0 9.5
2017-Sep-11 04:01N 37°16' E 025°52'5 9.4
2017-Sep-11 03:31N 37°18' E 025°47'5 9.7
2017-Sep-11 03:00N 37°19' E 025°41'510.2
2017-Sep-11 02:31N 37°20' E 025°35'510.3
2017-Sep-11 02:00N 37°21' E 025°28'510.1
2017-Sep-11 01:30N 37°23' E 025°22'4 9.0
2017-Sep-11 01:01N 37°25' E 025°18'2 4.8
2017-Sep-11 00:30N 37°27' E 025°20'0 0.0
2017-Sep-11 00:00N 37°27' E 025°20'0 0.1
2017-Sep-10 23:30N 37°27' E 025°20'0 0.0
2017-Sep-10 22:54N 37°27' E 025°20'0 0.0
2017-Sep-10 22:30N 37°27' E 025°20'0 0.0
2017-Sep-10 21:54N 37°27' E 025°20'0 0.0
2017-Sep-10 21:30N 37°27' E 025°20'0 0.0
2017-Sep-10 21:00N 37°27' E 025°20'0 0.0
2017-Sep-10 20:30N 37°27' E 025°20'0 0.0
2017-Sep-10 20:00N 37°27' E 025°20'0 0.0
2017-Sep-10 18:30N 37°27' E 025°20'0 0.0
2017-Sep-10 17:54N 37°27' E 025°20'0 0.0
2017-Sep-10 17:30N 37°27' E 025°20'0 0.0
2017-Sep-10 16:54N 37°27' E 025°20'0 0.0
2017-Sep-10 16:12N 37°27' E 025°20'0 0.0
2017-Sep-10 15:58N 37°27' E 025°20'0 0.7
2017-Sep-10 15:30N 37°27' E 025°19'3 5.8
2017-Sep-10 15:01N 37°24' E 025°19'1 1.2
2017-Sep-10 14:00N 37°25' E 025°20'0 0.0
2017-Sep-10 13:27N 37°25' E 025°20'0 0.0
2017-Sep-10 13:00N 37°25' E 025°20'0 0.0
2017-Sep-10 12:24N 37°25' E 025°20'0 0.0
2017-Sep-10 12:00N 37°25' E 025°20'0 0.0
2017-Sep-10 11:30N 37°25' E 025°20'0 0.0
2017-Sep-10 10:51N 37°25' E 025°20'0 0.0
2017-Sep-10 10:27N 37°25' E 025°20'0 0.0
2017-Sep-10 10:00N 37°25' E 025°20'0 0.0
2017-Sep-10 09:27N 37°25' E 025°20'0 0.0
2017-Sep-10 09:00N 37°25' E 025°20'0 0.0
2017-Sep-10 08:30N 37°25' E 025°20'2 4.8
2017-Sep-10 08:00N 37°26' E 025°18'2 3.9
2017-Sep-10 07:30N 37°27' E 025°20'0 0.0
2017-Sep-10 07:00N 37°27' E 025°20'0 0.0
2017-Sep-10 06:30N 37°27' E 025°20'0 0.0
2017-Sep-10 06:00N 37°27' E 025°20'0 0.0
2017-Sep-10 05:30N 37°27' E 025°20'0 0.0
2017-Sep-10 05:00N 37°27' E 025°20'0 0.0
2017-Sep-10 04:30N 37°27' E 025°20'0 0.0
2017-Sep-10 04:00N 37°27' E 025°20'0 0.0
2017-Sep-10 03:30N 37°27' E 025°20'0 0.0
2017-Sep-10 03:00N 37°27' E 025°20'0 0.0
2017-Sep-10 02:30N 37°27' E 025°20'0 0.0
2017-Sep-10 02:00N 37°27' E 025°20'0 0.0
2017-Sep-10 01:30N 37°27' E 025°20'0 0.0
2017-Sep-10 01:00N 37°27' E 025°20'0 0.0
2017-Sep-10 00:30N 37°27' E 025°20'0 0.0
2017-Sep-10 00:00N 37°27' E 025°20'0 0.0
2017-Sep-09 23:30N 37°27' E 025°20'0 0.0
2017-Sep-09 23:00N 37°27' E 025°20'0 0.0
2017-Sep-09 22:30N 37°27' E 025°20'0 0.0
2017-Sep-09 22:00N 37°27' E 025°20'0 0.0
2017-Sep-09 21:30N 37°27' E 025°20'0 0.0
2017-Sep-09 21:00N 37°27' E 025°20'0 0.0
2017-Sep-09 20:29N 37°27' E 025°20'0 0.0
2017-Sep-09 20:00N 37°27' E 025°20'0 0.0
2017-Sep-09 19:28N 37°27' E 025°20'0 0.0
2017-Sep-09 19:00N 37°27' E 025°20'0 0.0
2017-Sep-09 18:29N 37°27' E 025°20'0 0.0
2017-Sep-09 17:59N 37°27' E 025°20'0 0.0
2017-Sep-09 17:30N 37°27' E 025°20'0 0.0
2017-Sep-09 17:00N 37°27' E 025°20'0 0.0
2017-Sep-09 16:30N 37°27' E 025°20'0 0.0
2017-Sep-09 16:00N 37°27' E 025°20'0 0.0
2017-Sep-09 15:30N 37°27' E 025°20'0 0.0
2017-Sep-09 15:00N 37°27' E 025°20'0 0.1
2017-Sep-09 14:30N 37°27' E 025°20'3 5.6
2017-Sep-09 14:00N 37°24' E 025°20'1 1.3
2017-Sep-09 13:29N 37°25' E 025°20'0 0.0
2017-Sep-09 12:59N 37°25' E 025°20'0 0.0
2017-Sep-09 12:23N 37°25' E 025°20'0 0.0
2017-Sep-09 11:59N 37°25' E 025°20'0 0.0
2017-Sep-09 11:26N 37°25' E 025°20'0 0.0
2017-Sep-09 10:59N 37°25' E 025°20'0 0.0
2017-Sep-09 10:29N 37°25' E 025°20'0 0.0
2017-Sep-09 09:59N 37°25' E 025°20'0 0.0
2017-Sep-09 09:29N 37°25' E 025°20'0 0.0
2017-Sep-09 08:56N 37°25' E 025°20'0 0.0
2017-Sep-09 08:23N 37°25' E 025°20'0 0.1
2017-Sep-09 08:01N 37°25' E 025°20'3 5.8
2017-Sep-09 07:30N 37°26' E 025°18'2 2.9
2017-Sep-09 06:56N 37°27' E 025°20'0 0.0
2017-Sep-09 06:29N 37°27' E 025°20'0 0.0
2017-Sep-09 05:59N 37°27' E 025°20'0 0.0
2017-Sep-09 05:29N 37°27' E 025°20'0 0.0
2017-Sep-09 04:59N 37°27' E 025°20'0 0.0
2017-Sep-09 04:29N 37°27' E 025°20'0 0.0
2017-Sep-09 03:59N 37°27' E 025°20'0 0.0
2017-Sep-09 03:29N 37°27' E 025°20'0 0.0
2017-Sep-09 02:59N 37°27' E 025°20'0 0.0
2017-Sep-09 02:17N 37°27' E 025°20'0 0.0
2017-Sep-09 01:53N 37°27' E 025°20'0 0.0
2017-Sep-09 01:29N 37°27' E 025°20'0 0.0
2017-Sep-09 00:47N 37°27' E 025°20'0 0.0
2017-Sep-09 00:23N 37°27' E 025°20'0 0.0
2017-Sep-08 23:50N 37°27' E 025°20'0 0.0
2017-Sep-08 23:29N 37°27' E 025°20'0 0.0
2017-Sep-08 22:59N 37°27' E 025°20'0 0.0
2017-Sep-08 22:29N 37°27' E 025°20'0 0.0
2017-Sep-08 21:59N 37°27' E 025°20'0 0.0
2017-Sep-08 21:26N 37°27' E 025°20'0 0.0
2017-Sep-08 20:59N 37°27' E 025°20'0 0.0
2017-Sep-08 20:29N 37°27' E 025°20'0 0.0
2017-Sep-08 19:44N 37°27' E 025°20'0 0.0
2017-Sep-08 19:29N 37°27' E 025°20'0 0.0
2017-Sep-08 18:59N 37°27' E 025°20'0 0.0
2017-Sep-08 18:29N 37°27' E 025°20'0 0.0
2017-Sep-08 17:59N 37°27' E 025°20'0 0.0
2017-Sep-08 17:29N 37°27' E 025°20'0 0.0
2017-Sep-08 16:56N 37°27' E 025°20'0 0.0
2017-Sep-08 16:23N 37°27' E 025°20'0 0.0
2017-Sep-08 16:00N 37°27' E 025°20'0 0.0
2017-Sep-08 15:30N 37°27' E 025°20'0 0.0
2017-Sep-08 15:00N 37°27' E 025°20'0 0.0
2017-Sep-08 14:30N 37°27' E 025°20'2 4.8
2017-Sep-08 14:00N 37°25' E 025°18'1 2.3
2017-Sep-08 13:30N 37°25' E 025°19'0 0.0
2017-Sep-08 13:00N 37°25' E 025°19'0 0.0
2017-Sep-08 12:30N 37°25' E 025°19'0 0.0
2017-Sep-08 12:00N 37°25' E 025°19'0 0.0
2017-Sep-08 11:27N 37°25' E 025°19'0 0.0
2017-Sep-08 11:00N 37°25' E 025°19'0 0.0
2017-Sep-08 10:31N 37°25' E 025°19'0 0.0
2017-Sep-08 10:00N 37°25' E 025°19'3 5.4
2017-Sep-08 09:31N 37°23' E 025°18'5 9.2
2017-Sep-08 09:00N 37°22' E 025°12'5 9.8
2017-Sep-08 08:30N 37°26' E 025°08'610.1
2017-Sep-08 07:55N 37°29' E 025°01'410.4
2017-Sep-08 07:30N 37°31' E 024°56'5 9.7
2017-Sep-08 07:01N 37°31' E 024°50'510.0
2017-Sep-08 06:30N 37°31' E 024°44'36 9.9
2017-Sep-08 02:52N 37°37' E 023°59'410.0
2017-Sep-08 02:31N 37°39' E 023°55'510.0
2017-Sep-08 02:01N 37°42' E 023°50'510.2
2017-Sep-08 01:30N 37°45' E 023°45'5 9.9
2017-Sep-08 01:01N 37°50' E 023°42'5 9.9
2017-Sep-08 00:31N 37°54' E 023°40'2 4.1
2017-Sep-08 00:01N 37°56' E 023°39'0 0.0
2017-Sep-07 23:26N 37°56' E 023°39'0 0.0
2017-Sep-07 22:59N 37°56' E 023°39'0 0.0
2017-Sep-07 22:29N 37°56' E 023°39'0 0.0
2017-Sep-07 21:59N 37°56' E 023°39'0 0.0
2017-Sep-07 21:29N 37°56' E 023°39'0 0.0
2017-Sep-07 20:59N 37°56' E 023°39'0 0.0
2017-Sep-07 20:29N 37°56' E 023°39'0 0.0
2017-Sep-07 19:59N 37°56' E 023°39'0 0.0
2017-Sep-07 19:29N 37°56' E 023°39'0 0.0
2017-Sep-07 18:59N 37°56' E 023°39'0 0.0
2017-Sep-07 18:29N 37°56' E 023°39'0 0.0
2017-Sep-07 17:59N 37°56' E 023°39'0 0.0
2017-Sep-07 17:29N 37°56' E 023°39'0 0.0
2017-Sep-07 16:59N 37°56' E 023°39'0 0.0
2017-Sep-07 16:29N 37°56' E 023°39'0 0.0
2017-Sep-07 15:59N 37°56' E 023°39'0 0.0
2017-Sep-07 15:29N 37°56' E 023°39'0 0.0
2017-Sep-07 14:59N 37°56' E 023°39'0 0.0
2017-Sep-07 14:29N 37°56' E 023°39'0 0.0
2017-Sep-07 13:59N 37°56' E 023°39'0 0.0
2017-Sep-07 13:29N 37°56' E 023°39'0 0.0
2017-Sep-07 12:59N 37°56' E 023°39'0 0.0
2017-Sep-07 12:29N 37°56' E 023°39'0 0.0
2017-Sep-07 11:59N 37°56' E 023°39'0 0.0
2017-Sep-07 11:29N 37°56' E 023°39'0 0.0
2017-Sep-07 10:59N 37°56' E 023°39'0 0.0
2017-Sep-07 10:29N 37°56' E 023°39'0 0.0
2017-Sep-07 09:59N 37°56' E 023°39'0 0.0
2017-Sep-07 09:29N 37°56' E 023°39'0 0.0
2017-Sep-07 08:59N 37°56' E 023°39'0 0.0
2017-Sep-07 08:29N 37°56' E 023°39'0 0.0
2017-Sep-07 07:53N 37°56' E 023°39'0 0.0
2017-Sep-07 07:26N 37°56' E 023°39'0 0.0
2017-Sep-07 06:59N 37°56' E 023°39'0 0.0
2017-Sep-07 06:29N 37°56' E 023°39'0 0.0
2017-Sep-07 05:59N 37°56' E 023°39'0 0.0
2017-Sep-07 05:29N 37°56' E 023°39'0 0.0
2017-Sep-07 04:59N 37°56' E 023°39'0 0.0
2017-Sep-07 04:29N 37°56' E 023°39'0 0.0
2017-Sep-07 03:59N 37°56' E 023°39'0 0.0
2017-Sep-07 03:29N 37°56' E 023°39'0 0.0
2017-Sep-07 02:56N 37°56' E 023°39'0 0.0
2017-Sep-07 02:29N 37°56' E 023°39'0 0.0
2017-Sep-07 01:59N 37°56' E 023°39'0 0.0
2017-Sep-07 01:29N 37°56' E 023°39'0 0.0
2017-Sep-07 00:59N 37°56' E 023°39'0 0.0
2017-Sep-07 00:29N 37°56' E 023°39'0 0.0
2017-Sep-06 23:59N 37°56' E 023°39'0 0.0
2017-Sep-06 23:29N 37°56' E 023°39'0 0.0
2017-Sep-06 22:59N 37°56' E 023°39'0 0.1
2017-Sep-06 22:29N 37°56' E 023°39'0 0.0
2017-Sep-06 21:59N 37°56' E 023°39'0 0.0
2017-Sep-06 21:29N 37°56' E 023°39'0 0.0
2017-Sep-06 20:59N 37°56' E 023°39'0 0.0
2017-Sep-06 20:29N 37°56' E 023°39'0 0.0
2017-Sep-06 19:59N 37°56' E 023°39'0 0.0
2017-Sep-06 19:29N 37°56' E 023°39'0 0.0
2017-Sep-06 18:56N 37°56' E 023°39'0 0.0
2017-Sep-06 18:29N 37°56' E 023°39'0 0.0
2017-Sep-06 17:59N 37°56' E 023°39'0 0.0
2017-Sep-06 17:29N 37°56' E 023°39'0 0.0
2017-Sep-06 16:59N 37°56' E 023°39'0 0.0
2017-Sep-06 16:29N 37°56' E 023°39'0 0.0
2017-Sep-06 15:59N 37°56' E 023°39'0 0.0
2017-Sep-06 15:29N 37°56' E 023°39'0 0.0
2017-Sep-06 14:56N 37°56' E 023°39'0 0.0
2017-Sep-06 14:29N 37°56' E 023°39'0 0.0
2017-Sep-06 13:59N 37°56' E 023°39'0 0.0
2017-Sep-06 13:29N 37°56' E 023°39'0 0.0
2017-Sep-06 12:59N 37°56' E 023°39'0 0.3
2017-Sep-06 12:26N 37°56' E 023°39'0 0.0
2017-Sep-06 11:59N 37°56' E 023°39'0 0.0
2017-Sep-06 11:29N 37°56' E 023°39'0 0.0
2017-Sep-06 10:59N 37°56' E 023°39'0 0.0
2017-Sep-06 10:29N 37°56' E 023°39'0 0.0
2017-Sep-06 09:59N 37°56' E 023°39'0 0.0
2017-Sep-06 09:29N 37°56' E 023°39'0 0.0
2017-Sep-06 09:00N 37°56' E 023°39'1 2.5
2017-Sep-06 08:30N 37°55' E 023°38'5 9.2
2017-Sep-06 08:00N 37°52' E 023°34'4 7.3
2017-Sep-06 07:30N 37°51' E 023°29'5 9.1
2017-Sep-06 07:00N 37°52' E 023°24'5 9.4
2017-Sep-06 06:30N 37°52' E 023°18'  
2017-Sep-02 13:25N 37°52' E 020°46'2 0.8
2017-Sep-02 10:55N 37°53' E 020°44'611.4
2017-Sep-02 10:26N 37°58' E 020°41'511.5
2017-Sep-02 10:00N 38°01' E 020°36'611.7
2017-Sep-02 09:30N 38°05' E 020°30'6 4.4
2017-Sep-02 08:09N 38°11' E 020°29'0 0.0
2017-Sep-02 07:57N 38°11' E 020°29'0 0.0
2017-Sep-02 07:27N 38°11' E 020°29'0 0.0
2017-Sep-02 06:57N 38°11' E 020°29'  

Dump ship's entire track history